Time;durP1;ratioP1;P1;durP2;ratioP2;P2;SDS_P1;SDS_P2;PMS_P1;PMS_P2;Temp;Humidity;BMP_temperature;BMP_pressure;BME280_temperature;BME280_humidity;BME280_pressure;Samples;Min_cycle;Max_cycle;Signal;HPM_P1;HPM_P2
2022/04/04 00:02:34;;;;;;;26.07;24.30;;;;;;;7.22;100.00;102035.00;2009050;70;32949;-75
2022/04/04 00:08:19;;;;;;;28.77;27.07;;;;;;;7.15;100.00;102037.83;2000355;71;33248;-75
2022/04/04 00:14:04;;;;;;;28.40;26.70;;;;;;;7.05;100.00;102026.52;2014581;71;32887;-75
2022/04/04 00:19:49;;;;;;;28.47;26.77;;;;;;;7.04;100.00;102016.53;2005445;71;32896;-75
2022/04/04 00:25:33;;;;;;;29.20;27.50;;;;;;;7.04;100.00;102000.50;1996880;71;32756;-77
2022/04/04 00:31:17;;;;;;;29.07;27.37;;;;;;;7.05;100.00;101993.36;2003907;71;33330;-72
2022/04/04 00:37:01;;;;;;;28.77;27.07;;;;;;;7.04;100.00;101974.25;2016198;71;32895;-76
2022/04/04 00:42:45;;;;;;;29.17;27.37;;;;;;;7.07;100.00;101974.62;2009692;71;32928;-73
2022/04/04 00:48:30;;;;;;;29.70;28.10;;;;;;;7.10;100.00;101960.32;2005704;71;32802;-75
2022/04/04 00:54:14;;;;;;;30.30;28.60;;;;;;;7.11;100.00;101942.67;2003749;71;33305;-77
2022/04/04 00:59:59;;;;;;;31.53;29.73;;;;;;;7.11;100.00;101932.16;1991557;71;32806;-76
2022/04/04 01:05:44;;;;;;;32.23;30.23;;;;;;;7.20;100.00;101928.83;2018274;71;32926;-74
2022/04/04 01:11:29;;;;;;;34.73;32.70;;;;;;;7.18;100.00;101929.63;2016401;71;32873;-75
2022/04/04 01:17:14;;;;;;;34.40;32.40;;;;;;;7.25;100.00;101922.06;2012943;70;33026;-77
2022/04/04 01:23:04;;;;;;;36.37;34.17;;;;;;;7.27;100.00;101904.69;2005546;71;32892;-82
2022/04/04 01:28:49;;;;;;;38.10;35.80;;;;;;;7.28;100.00;101892.55;2007747;71;33241;-73
2022/04/04 01:34:34;;;;;;;38.60;36.40;;;;;;;7.23;100.00;101877.22;1991432;71;32801;-72
2022/04/04 01:40:18;;;;;;;39.73;37.40;;;;;;;7.24;100.00;101870.63;2004333;71;32753;-75
2022/04/04 01:46:27;;;;;;;40.43;37.97;;;;;;;7.26;100.00;101856.58;2011070;71;32834;-75
2022/04/04 01:52:12;;;;;;;39.93;37.63;;;;;;;7.24;100.00;101849.90;2014794;71;32888;-74
2022/04/04 01:57:55;;;;;;;40.60;38.20;;;;;;;7.29;100.00;101841.73;2011032;71;32823;-76
2022/04/04 02:03:41;;;;;;;43.07;40.57;;;;;;;7.31;100.00;101816.64;2011461;71;32902;-77
2022/04/04 02:09:26;;;;;;;40.30;38.10;;;;;;;7.28;100.00;101819.32;1999940;71;32937;-74
2022/04/04 02:21:47;;;;;;;38.30;36.03;;;;;;;7.41;100.00;101778.16;2011011;71;32829;-76
2022/04/04 02:27:32;;;;;;;36.50;34.37;;;;;;;7.47;100.00;101763.92;2011366;71;32822;-74
2022/04/04 02:33:19;;;;;;;38.50;36.30;;;;;;;7.42;100.00;101744.45;2011415;71;32803;-75
2022/04/04 02:39:04;;;;;;;36.37;34.37;;;;;;;7.51;100.00;101739.70;2002229;71;32906;-74
2022/04/04 02:44:48;;;;;;;33.80;31.90;;;;;;;7.54;100.00;101738.36;2017000;71;33288;-74
2022/04/04 02:50:36;;;;;;;33.87;31.97;;;;;;;7.56;100.00;101732.06;2013168;71;32827;-77
2022/04/04 02:56:33;;;;;;;33.27;31.47;;;;;;;7.58;100.00;101722.95;2011045;71;33276;-76
2022/04/04 03:02:17;;;;;;;32.23;30.43;;;;;;;7.61;100.00;101705.91;2003958;71;33275;-77
2022/04/04 03:08:01;;;;;;;32.13;30.43;;;;;;;7.66;100.00;101699.07;2006115;71;32806;-73
2022/04/04 03:13:46;;;;;;;40.57;38.27;;;;;;;7.64;100.00;101698.49;2012877;71;32800;-77
2022/04/04 03:19:31;;;;;;;63.53;60.23;;;;;;;7.56;100.00;101703.88;2014799;71;33301;-74
2022/04/04 03:25:17;;;;;;;72.40;68.40;;;;;;;7.36;100.00;101692.36;2008073;70;33327;-76
2022/04/04 03:31:06;;;;;;;72.63;68.43;;;;;;;7.19;100.00;101676.23;2011507;71;32785;-74
2022/04/04 03:36:51;;;;;;;72.80;68.50;;;;;;;7.14;100.00;101669.23;2003817;71;33336;-75
2022/04/04 03:42:37;;;;;;;70.77;66.40;;;;;;;7.04;100.00;101641.38;2004354;71;33283;-73
2022/04/04 03:48:22;;;;;;;70.23;65.83;;;;;;;7.15;100.00;101634.98;2009264;71;32931;-75
2022/04/04 03:54:07;;;;;;;71.00;66.57;;;;;;;6.98;100.00;101618.85;1994838;71;32833;-75
2022/04/04 03:59:51;;;;;;;70.17;65.87;;;;;;;6.97;100.00;101605.61;1998414;71;33339;-75
2022/04/04 04:05:37;;;;;;;69.63;65.20;;;;;;;6.91;100.00;101599.66;2002034;71;32897;-75
2022/04/04 04:11:22;;;;;;;70.73;66.23;;;;;;;6.94;100.00;101592.27;2012921;71;32886;-73
2022/04/04 04:17:08;;;;;;;71.60;67.00;;;;;;;6.86;100.00;101569.17;1995085;71;32853;-75
2022/04/04 04:22:55;;;;;;;71.07;66.37;;;;;;;6.86;100.00;101556.74;1998441;71;32897;-73
2022/04/04 04:28:41;;;;;;;68.90;64.13;;;;;;;6.80;100.00;101548.88;2011036;71;32930;-73
2022/04/04 04:34:25;;;;;;;67.00;62.20;;;;;;;6.74;100.00;101532.47;2018329;71;32802;-74
2022/04/04 04:40:12;;;;;;;65.70;61.03;;;;;;;6.61;100.00;101526.67;2014972;71;32816;-75
2022/04/04 04:45:57;;;;;;;67.17;62.13;;;;;;;6.68;100.00;101515.48;2007544;71;32826;-73
2022/04/04 04:51:41;;;;;;;65.30;60.47;;;;;;;6.62;100.00;101514.55;2016816;71;32927;-74
2022/04/04 04:57:26;;;;;;;65.20;60.30;;;;;;;6.64;100.00;101505.47;2013589;71;32870;-76
2022/04/04 05:03:25;;;;;;;63.93;59.20;;;;;;;6.77;100.00;101492.78;2000713;71;32750;-75
2022/04/04 05:09:10;;;;;;;67.40;62.47;;;;;;;6.77;100.00;101487.80;1991237;71;32828;-76
2022/04/04 05:14:54;;;;;;;65.53;60.57;;;;;;;6.72;100.00;101476.64;2000747;70;32822;-73
2022/04/04 05:20:38;;;;;;;66.27;61.47;;;;;;;6.73;100.00;101475.03;2011097;71;32816;-75
2022/04/04 05:26:24;;;;;;;66.40;61.27;;;;;;;6.77;100.00;101467.09;2011111;71;32882;-76
2022/04/04 05:32:09;;;;;;;63.30;58.47;;;;;;;6.79;100.00;101464.39;1995072;71;32813;-75
2022/04/04 05:37:54;;;;;;;63.03;58.13;;;;;;;6.78;100.00;101457.19;2007503;71;32829;-75
2022/04/04 05:43:39;;;;;;;64.20;59.67;;;;;;;6.79;100.00;101460.26;2006155;71;33296;-76
2022/04/04 05:49:23;;;;;;;67.33;62.30;;;;;;;6.89;100.00;101452.69;2000212;71;32818;-75
2022/04/04 05:55:09;;;;;;;60.37;55.87;;;;;;;6.84;100.00;101449.86;2014796;71;32897;-75
2022/04/04 06:00:53;;;;;;;61.47;56.43;;;;;;;6.84;100.00;101454.00;1994682;71;33286;-74
2022/04/04 06:06:37;;;;;;;57.50;53.03;;;;;;;6.91;100.00;101431.20;2009257;71;33276;-74
2022/04/04 06:12:21;;;;;;;59.80;54.73;;;;;;;6.91;100.00;101443.63;2009879;71;33219;-75
2022/04/04 06:18:05;;;;;;;62.53;57.63;;;;;;;6.94;100.00;101435.38;2016503;71;33257;-76
2022/04/04 06:23:49;;;;;;;64.60;59.77;;;;;;;6.97;100.00;101428.85;2002394;71;32870;-75
2022/04/04 06:29:34;;;;;;;60.87;56.17;;;;;;;6.97;100.00;101418.34;1994608;71;32817;-76
2022/04/04 06:35:19;;;;;;;62.37;57.47;;;;;;;6.99;100.00;101408.71;2007527;71;33380;-74
2022/04/04 06:41:04;;;;;;;59.63;55.17;;;;;;;7.04;100.00;101396.37;2011399;71;33253;-75
2022/04/04 06:46:48;;;;;;;60.83;55.60;;;;;;;7.07;100.00;101397.25;2000752;71;33228;-72
2022/04/04 06:52:32;;;;;;;63.60;58.20;;;;;;;7.13;100.00;101386.60;2011140;71;33431;-74
2022/04/04 06:58:17;;;;;;;64.13;59.13;;;;;;;7.15;100.00;101389.09;1994860;71;32814;-73
2022/04/04 07:04:02;;;;;;;61.33;56.33;;;;;;;7.20;100.00;101376.22;2012955;71;33322;-75
2022/04/04 07:09:47;;;;;;;62.43;57.20;;;;;;;7.30;100.00;101380.55;2016561;71;33344;-75
2022/04/04 07:15:34;;;;;;;62.63;57.43;;;;;;;7.29;100.00;101378.02;2016742;71;32892;-74
2022/04/04 07:21:18;;;;;;;62.00;57.20;;;;;;;7.35;100.00;101361.83;2000177;71;32908;-73
2022/04/04 07:27:03;;;;;;;62.80;57.83;;;;;;;7.45;100.00;101348.70;2000238;71;32875;-72
2022/04/04 07:32:48;;;;;;;60.23;55.43;;;;;;;7.57;100.00;101350.28;2018396;71;33286;-73
2022/04/04 07:38:34;;;;;;;62.63;57.80;;;;;;;7.55;100.00;101329.52;2011235;71;32880;-78
2022/04/04 07:44:18;;;;;;;56.37;51.67;;;;;;;7.67;100.00;101323.33;2014768;71;32824;-77
2022/04/04 07:50:03;;;;;;;60.03;55.33;;;;;;;7.66;100.00;101324.41;2002550;71;32973;-77
2022/04/04 07:55:47;;;;;;;61.27;56.63;;;;;;;7.70;100.00;101322.84;2000635;71;32744;-75
2022/04/04 08:01:31;;;;;;;58.43;53.80;;;;;;;7.81;100.00;101308.59;2018472;71;32924;-74
2022/04/04 08:07:18;;;;;;;54.07;49.87;;;;;;;7.91;100.00;101306.82;2018357;71;32973;-74
2022/04/04 08:13:01;;;;;;;56.10;51.60;;;;;;;7.99;100.00;101291.16;2016585;71;32879;-75
2022/04/04 08:18:45;;;;;;;53.20;48.90;;;;;;;8.10;100.00;101289.34;2000432;71;33295;-79
2022/04/04 08:24:30;;;;;;;55.23;50.93;;;;;;;8.16;100.00;101287.77;2009244;71;32917;-76
2022/04/04 08:30:17;;;;;;;54.60;50.40;;;;;;;8.17;100.00;101278.92;2006185;71;32829;-76
2022/04/04 08:36:03;;;;;;;53.63;49.53;;;;;;;8.27;100.00;101272.11;2014780;71;32816;-76
2022/04/04 08:41:50;;;;;;;55.90;51.67;;;;;;;8.36;100.00;101266.97;2005695;71;33254;-73
2022/04/04 08:47:36;;;;;;;56.53;52.33;;;;;;;8.39;100.00;101259.52;1991402;71;33279;-73
2022/04/04 08:53:21;;;;;;;57.17;52.67;;;;;;;8.45;100.00;101250.19;2009097;71;32871;-84
2022/04/04 08:59:06;;;;;;;57.17;52.77;;;;;;;8.55;100.00;101254.45;2005693;71;32954;-74
2022/04/04 09:04:54;;;;;;;53.87;49.63;;;;;;;8.61;100.00;101258.38;2018434;71;33263;-76
2022/04/04 09:10:41;;;;;;;56.40;52.20;;;;;;;8.66;100.00;101245.13;1991444;71;33318;-71
2022/04/04 09:16:26;;;;;;;58.10;53.80;;;;;;;8.89;100.00;101236.48;2000391;71;32733;-77
2022/04/04 09:22:11;;;;;;;60.50;56.10;;;;;;;9.06;100.00;101226.09;2014842;71;32831;-72
2022/04/04 09:28:17;;;;;;;59.97;55.57;;;;;;;9.10;100.00;101210.59;2003844;71;33392;-71
2022/04/04 09:34:06;;;;;;;61.17;56.87;;;;;;;9.12;100.00;101206.99;2009147;71;32846;-70
2022/04/04 09:39:55;;;;;;;60.57;56.20;;;;;;;9.26;100.00;101208.75;2011269;71;32870;-72
2022/04/04 09:45:41;;;;;;;55.60;51.40;;;;;;;9.38;100.00;101208.53;2003750;71;32891;-74
2022/04/04 09:51:37;;;;;;;60.40;56.10;;;;;;;9.48;100.00;101204.44;2008227;71;32747;-70
2022/04/04 09:57:27;;;;;;;57.67;53.37;;;;;;;9.68;100.00;101200.37;2006271;71;32793;-75
2022/04/04 10:03:12;;;;;;;59.93;55.53;;;;;;;9.89;100.00;101188.80;2011065;71;33364;-70
2022/04/04 10:09:00;;;;;;;59.73;55.33;;;;;;;10.06;100.00;101178.30;2011520;71;33343;-73
2022/04/04 10:14:45;;;;;;;61.50;57.10;;;;;;;10.09;100.00;101175.00;2000486;71;33407;-74
2022/04/04 10:20:30;;;;;;;58.47;53.87;;;;;;;10.16;100.00;101174.20;2009634;71;32904;-70
2022/04/04 10:26:16;;;;;;;61.83;57.43;;;;;;;10.31;100.00;101165.88;2002668;71;33362;-72
2022/04/04 10:32:02;;;;;;;57.60;53.13;;;;;;;10.54;100.00;101166.46;2011306;71;32962;-71
2022/04/04 10:37:47;;;;;;;56.10;51.70;;;;;;;10.72;100.00;101162.58;1995208;71;33210;-74
2022/04/04 10:43:40;;;;;;;59.97;55.53;;;;;;;10.78;100.00;101157.28;2014899;71;33268;-71
2022/04/04 10:49:25;;;;;;;55.93;51.63;;;;;;;11.15;100.00;101145.84;1991510;71;33324;-75
2022/04/04 10:55:30;;;;;;;58.13;53.73;;;;;;;11.16;100.00;101129.44;1990864;71;32867;-75
2022/04/04 11:01:16;;;;;;;56.77;52.37;;;;;;;11.33;100.00;101127.72;1999020;71;32824;-69
2022/04/04 11:13:19;;;;;;;60.03;55.43;;;;;;;11.51;100.00;101121.50;2016816;71;33367;-74
2022/04/04 11:19:12;;;;;;;54.93;50.63;;;;;;;11.57;100.00;101114.81;2011174;71;32875;-75
2022/04/04 11:25:03;;;;;;;58.63;54.13;;;;;;;11.71;100.00;101108.91;2002675;71;32741;-69
2022/04/04 11:30:44;;;;;;;58.17;53.83;;;;;;;11.95;100.00;101110.45;2007455;71;32879;-72
2022/04/04 11:36:30;;;;;;;59.30;54.73;;;;;;;12.00;100.00;101095.12;2005677;71;32865;-71
2022/04/04 11:42:17;;;;;;;60.83;56.37;;;;;;;12.06;100.00;101095.92;2013131;71;32810;-70
2022/04/04 11:48:04;;;;;;;58.60;54.10;;;;;;;12.36;100.00;101085.11;2000710;71;33187;-69
2022/04/04 11:53:51;;;;;;;62.23;57.63;;;;;;;12.38;100.00;101079.50;2007495;71;33254;-76
2022/04/04 11:59:37;;;;;;;62.27;57.87;;;;;;;12.87;100.00;101069.56;1996869;71;32862;-71
2022/04/04 12:05:26;;;;;;;60.40;55.93;;;;;;;12.93;100.00;101066.97;2016756;71;32869;-73
2022/04/04 12:11:10;;;;;;;62.07;57.40;;;;;;;13.04;100.00;101066.31;1998190;71;33304;-70
2022/04/04 12:17:05;;;;;;;65.50;60.80;;;;;;;12.97;100.00;101061.06;2016346;71;33031;-78
2022/04/04 12:28:58;;;;;;;62.90;58.00;;;;;;;13.32;100.00;101046.45;1994687;71;32811;-74
2022/04/04 12:35:03;;;;;;;60.70;56.20;;;;;;;13.55;100.00;101045.04;2003605;71;32811;-73
2022/04/04 12:41:11;;;;;;;63.20;58.23;;;;;;;13.74;100.00;101041.41;2003440;71;32827;-74
2022/04/04 12:47:08;;;;;;;68.83;64.13;;;;;;;13.83;100.00;101033.45;2014554;71;32877;-75
2022/04/04 12:53:00;;;;;;;67.93;63.07;;;;;;;13.90;100.00;101033.92;2007554;71;32788;-72
2022/04/04 12:58:46;;;;;;;68.80;64.10;;;;;;;13.88;100.00;101023.60;2009534;70;32749;-76
2022/04/04 13:04:32;;;;;;;68.03;63.43;;;;;;;14.05;100.00;101002.94;2010980;71;33353;-76
2022/04/04 13:10:16;;;;;;;60.87;56.40;;;;;;;14.09;100.00;101010.97;2002196;71;33229;-73
2022/04/04 13:16:00;;;;;;;60.57;56.27;;;;;;;14.21;100.00;101015.23;2003330;71;32819;-75
2022/04/04 13:21:48;;;;;;;61.80;57.50;;;;;;;14.26;100.00;101011.80;2014516;71;32888;-77
2022/04/04 13:27:33;;;;;;;59.87;55.67;;;;;;;14.20;100.00;101018.62;1994691;71;32806;-73
2022/04/04 13:33:18;;;;;;;61.57;57.40;;;;;;;14.28;100.00;101021.28;2005780;71;32804;-73
2022/04/04 13:39:03;;;;;;;64.20;60.07;;;;;;;14.39;100.00;101006.84;2011374;71;33190;-76
2022/04/04 13:44:51;;;;;;;63.37;59.27;;;;;;;14.43;100.00;101007.89;2016423;71;32903;-79
2022/04/04 13:50:35;;;;;;;65.97;61.57;;;;;;;14.61;100.00;100989.96;2018034;71;33374;-71
2022/04/04 13:56:21;;;;;;;69.90;65.50;;;;;;;14.73;100.00;100995.30;1999655;71;32914;-75
2022/04/04 14:02:06;;;;;;;64.83;60.63;;;;;;;14.75;100.00;100988.02;2010789;71;32833;-75
2022/04/04 14:07:50;;;;;;;67.30;63.07;;;;;;;14.67;100.00;100974.76;2003465;71;32984;-75
2022/04/04 14:13:36;;;;;;;62.63;58.77;;;;;;;14.73;100.00;100993.08;1996636;71;33217;-74
2022/04/04 14:19:21;;;;;;;67.13;63.03;;;;;;;14.93;100.00;100983.70;1996451;71;32846;-74
2022/04/04 14:25:07;;;;;;;66.83;62.73;;;;;;;14.94;100.00;100970.55;2007480;71;32955;-73
2022/04/04 14:30:55;;;;;;;65.00;61.00;;;;;;;14.81;100.00;100968.58;2003802;71;32856;-75
2022/04/04 14:36:38;;;;;;;63.23;59.13;;;;;;;14.84;100.00;100970.21;2003447;70;32820;-75
2022/04/04 14:42:23;;;;;;;67.60;63.50;;;;;;;14.85;100.00;100967.65;2012541;71;32898;-73
2022/04/04 14:48:09;;;;;;;66.90;62.50;;;;;;;14.86;100.00;100970.71;2007035;71;33370;-72
2022/04/04 14:53:54;;;;;;;68.37;63.57;;;;;;;14.93;100.00;100968.31;2014305;71;33016;-77
2022/04/04 14:59:39;;;;;;;66.17;62.07;;;;;;;15.04;100.00;100964.75;2007292;71;32909;-75
2022/04/04 15:05:26;;;;;;;63.67;59.53;;;;;;;15.00;100.00;100964.55;2016125;71;33290;-70
2022/04/04 15:11:11;;;;;;;63.30;59.10;;;;;;;15.13;100.00;100960.65;2009379;70;33244;-72
2022/04/04 15:16:56;;;;;;;66.23;61.90;;;;;;;14.96;100.00;100950.94;1994200;71;32909;-73
2022/04/04 15:22:40;;;;;;;60.33;56.33;;;;;;;15.05;100.00;100956.63;2005630;71;32789;-72
2022/04/04 15:28:25;;;;;;;66.27;61.87;;;;;;;15.03;100.00;100966.72;2005127;71;33515;-73
2022/04/04 15:34:12;;;;;;;62.13;58.13;;;;;;;15.07;100.00;100950.13;2016172;71;33357;-76
2022/04/04 15:39:57;;;;;;;62.10;58.20;;;;;;;15.15;100.00;100953.59;2005194;71;33041;-74
2022/04/04 15:45:43;;;;;;;63.27;59.27;;;;;;;15.10;100.00;100959.31;2000184;71;32899;-69
2022/04/04 15:51:29;;;;;;;63.20;59.20;;;;;;;15.03;100.00;100954.12;2008986;71;33286;-76
2022/04/04 15:57:14;;;;;;;63.57;59.77;;;;;;;15.11;100.00;100963.75;1977333;72;33353;-73
2022/04/04 16:02:58;;;;;;;63.33;59.13;;;;;;;15.10;100.00;100956.52;1999674;71;32799;-77
2022/04/04 16:08:44;;;;;;;65.27;61.37;;;;;;;15.19;100.00;100957.41;2008957;71;33416;-76
2022/04/04 16:14:28;;;;;;;62.50;58.70;;;;;;;15.15;100.00;100942.39;2014747;71;33324;-76
2022/04/04 16:20:13;;;;;;;62.90;59.13;;;;;;;15.15;100.00;100945.19;1994307;71;33275;-72
2022/04/04 16:25:58;;;;;;;67.80;64.00;;;;;;;15.26;100.00;100945.81;2002041;71;32746;-77
2022/04/04 16:31:43;;;;;;;64.10;60.60;;;;;;;15.15;100.00;100940.16;1991287;71;32864;-76
2022/04/04 16:37:28;;;;;;;65.73;62.13;;;;;;;15.19;100.00;100937.82;2000443;71;33227;-77
2022/04/04 16:43:12;;;;;;;62.83;59.53;;;;;;;15.20;100.00;100944.25;2003983;71;32879;-75
2022/04/04 16:48:57;;;;;;;63.30;59.83;;;;;;;15.11;100.00;100932.97;2012781;71;33265;-76
2022/04/04 16:54:41;;;;;;;66.47;62.77;;;;;;;15.13;100.00;100930.70;2010527;71;32896;-75
2022/04/04 17:00:29;;;;;;;66.33;62.43;;;;;;;15.15;100.00;100930.37;2007067;71;33411;-73
2022/04/04 17:06:13;;;;;;;61.23;57.53;;;;;;;15.10;100.00;100933.30;2006834;71;32876;-70
2022/04/04 17:11:57;;;;;;;60.53;56.83;;;;;;;15.12;100.00;100938.00;2003413;71;32922;-74
2022/04/04 17:17:41;;;;;;;67.77;63.73;;;;;;;15.06;100.00;100943.47;2011401;70;32951;-72
2022/04/04 17:23:29;;;;;;;64.73;60.43;;;;;;;15.09;100.00;100949.26;2009114;71;33408;-70
2022/04/04 17:29:14;;;;;;;67.43;63.33;;;;;;;15.00;100.00;100949.73;2003863;71;33485;-76
2022/04/04 17:34:59;;;;;;;68.33;64.03;;;;;;;14.84;100.00;100952.03;1997105;71;33292;-69
2022/04/04 17:40:43;;;;;;;69.30;65.00;;;;;;;14.82;100.00;100950.10;2014533;71;32834;-74
2022/04/04 17:46:32;;;;;;;70.90;66.40;;;;;;;14.79;100.00;100950.73;2004401;71;32828;-69
2022/04/04 17:52:16;;;;;;;69.33;64.77;;;;;;;14.71;100.00;100957.05;2000406;70;32756;-70
2022/04/04 17:58:01;;;;;;;68.70;64.20;;;;;;;14.69;100.00;100955.69;2011111;71;32835;-76
2022/04/04 18:03:46;;;;;;;71.23;66.80;;;;;;;14.69;100.00;100957.92;2006119;71;32760;-71
2022/04/04 18:09:30;;;;;;;66.80;62.57;;;;;;;14.68;100.00;100967.44;1991510;71;32915;-76
2022/04/04 18:15:15;;;;;;;66.30;62.00;;;;;;;14.68;100.00;100972.20;1996869;70;32800;-78
2022/04/04 18:21:04;;;;;;;70.73;66.33;;;;;;;14.06;100.00;100887.86;1947791;70;32991;-70
2022/04/04 18:26:45;;;;;;;65.67;61.67;;;;;;;14.57;100.00;100971.02;2016317;71;32880;-71
2022/04/04 18:32:30;;;;;;;64.17;60.37;;;;;;;14.48;100.00;100979.02;2005712;71;32792;-76
2022/04/04 18:38:14;;;;;;;68.17;63.97;;;;;;;14.47;100.00;100986.57;2003836;71;32934;-76
2022/04/04 18:44:00;;;;;;;65.00;61.13;;;;;;;14.47;100.00;100988.53;2000231;70;32877;-70
2022/04/04 18:49:44;;;;;;;65.50;61.40;;;;;;;14.39;100.00;100994.27;2014715;71;33303;-71
2022/04/04 18:55:29;;;;;;;70.43;66.33;;;;;;;14.41;100.00;100999.00;1988941;71;33306;-76
2022/04/04 19:01:13;;;;;;;71.23;67.03;;;;;;;14.37;100.00;101001.31;2002577;71;32749;-76
2022/04/04 19:06:58;;;;;;;70.60;66.40;;;;;;;14.32;100.00;100999.41;2000026;70;32890;-70
2022/04/04 19:12:42;;;;;;;65.50;61.40;;;;;;;14.31;100.00;101006.13;2011203;71;32942;-69
2022/04/04 19:18:27;;;;;;;66.13;62.13;;;;;;;14.28;100.00;101003.12;2009310;71;33354;-79
2022/04/04 19:24:11;;;;;;;66.80;62.70;;;;;;;14.24;100.00;101008.50;2007938;71;33238;-75
2022/04/04 19:29:55;;;;;;;65.80;61.70;;;;;;;14.24;100.00;101008.50;2005928;70;33241;-76
2022/04/04 19:35:40;;;;;;;64.40;60.40;;;;;;;14.13;100.00;101012.02;2000375;71;33427;-71
2022/04/04 19:41:24;;;;;;;65.73;61.67;;;;;;;14.12;100.00;101017.90;2009434;71;32813;-75
2022/04/04 19:47:10;;;;;;;65.50;61.50;;;;;;;14.16;100.00;101030.15;2009501;71;32941;-75
2022/04/04 19:52:55;;;;;;;67.57;63.57;;;;;;;14.12;100.00;101044.44;2005631;71;33532;-77
2022/04/04 19:58:38;;;;;;;66.93;62.87;;;;;;;14.10;100.00;101035.55;1996918;71;32799;-74
2022/04/04 20:04:24;;;;;;;66.20;62.00;;;;;;;14.00;100.00;101037.09;1994902;71;32819;-69
2022/04/04 20:10:12;;;;;;;66.60;62.50;;;;;;;13.99;100.00;101035.45;2006312;71;32816;-70
2022/04/04 20:16:04;;;;;;;66.30;62.30;;;;;;;13.96;100.00;101039.67;2070166;69;33000;-70
2022/04/04 20:21:48;;;;;;;67.23;63.23;;;;;;;13.98;100.00;101046.36;2015009;71;32828;-69
2022/04/04 20:27:33;;;;;;;68.57;64.43;;;;;;;13.94;100.00;101043.91;2011389;71;32865;-70
2022/04/04 20:33:19;;;;;;;67.10;63.10;;;;;;;13.95;100.00;101049.73;2010083;71;32813;-84
2022/04/04 20:39:06;;;;;;;65.47;61.57;;;;;;;13.96;100.00;101045.25;2015225;71;33026;-83
2022/04/04 20:44:50;;;;;;;64.87;60.90;;;;;;;14.01;100.00;101051.33;2005878;71;33271;-70
2022/04/04 20:50:35;;;;;;;67.50;63.40;;;;;;;13.91;100.00;101050.08;1995217;70;32835;-76
2022/04/04 20:56:19;;;;;;;67.63;63.53;;;;;;;13.90;100.00;101038.67;2016604;71;33385;-78
2022/04/04 21:02:02;;;;;;;69.10;64.97;;;;;;;13.84;100.00;101038.47;2005778;71;33362;-72
2022/04/04 21:07:46;;;;;;;67.60;63.40;;;;;;;13.83;100.00;101029.83;2012119;70;32760;-77
2022/04/04 21:13:30;;;;;;;67.77;63.67;;;;;;;13.82;100.00;101032.38;2006510;71;32920;-78
2022/04/04 21:19:15;;;;;;;70.00;65.73;;;;;;;13.77;100.00;101029.09;2008348;71;32827;-77
2022/04/04 21:25:00;;;;;;;67.77;63.77;;;;;;;13.79;100.00;101036.58;1969988;70;32957;-79
2022/04/04 21:30:49;;;;;;;68.87;64.77;;;;;;;13.81;100.00;101030.14;2013136;70;32837;-78
2022/04/04 21:36:30;;;;;;;68.60;64.50;;;;;;;13.80;100.00;101036.86;2007713;71;32825;-71
2022/04/04 21:42:15;;;;;;;68.80;64.70;;;;;;;13.79;100.00;101037.98;1995358;71;32758;-71
2022/04/04 21:48:00;;;;;;;69.77;65.67;;;;;;;13.80;100.00;101042.44;1997095;71;32843;-78
2022/04/04 21:53:44;;;;;;;66.60;62.70;;;;;;;13.76;100.00;101039.98;2016905;71;32903;-79
2022/04/04 21:59:29;;;;;;;69.57;65.47;;;;;;;13.79;100.00;101031.00;2004510;71;33263;-71
2022/04/04 22:05:13;;;;;;;68.83;64.73;;;;;;;13.74;100.00;101041.41;2009362;70;32837;-78
2022/04/04 22:10:58;;;;;;;70.03;65.93;;;;;;;13.76;100.00;101038.59;2003658;70;32813;-78
2022/04/04 22:16:42;;;;;;;70.53;66.43;;;;;;;13.77;100.00;101038.87;2016661;71;32946;-71
2022/04/04 22:22:27;;;;;;;72.70;68.50;;;;;;;13.72;100.00;101037.54;2016651;71;32892;-78
2022/04/04 22:28:12;;;;;;;72.10;67.70;;;;;;;13.68;100.00;101044.86;2018500;71;32828;-70
2022/04/04 22:33:56;;;;;;;69.93;65.60;;;;;;;13.66;100.00;101042.36;2016838;71;32842;-79
2022/04/04 22:39:40;;;;;;;73.73;69.40;;;;;;;13.60;100.00;101044.14;2013609;71;32838;-78
2022/04/04 22:45:24;;;;;;;71.97;67.70;;;;;;;13.58;100.00;101043.03;2000522;71;32821;-71
2022/04/04 22:51:09;;;;;;;72.80;68.50;;;;;;;13.62;100.00;101047.45;2006393;71;32766;-71
2022/04/04 22:56:54;;;;;;;69.30;65.10;;;;;;;13.55;100.00;101040.85;1972182;72;32985;-78
2022/04/04 23:02:38;;;;;;;72.13;67.87;;;;;;;13.59;100.00;101043.30;2013185;71;32882;-71
2022/04/04 23:08:23;;;;;;;67.73;63.70;;;;;;;13.51;100.00;101039.80;2018797;71;32822;-80
2022/04/04 23:14:08;;;;;;;68.67;64.57;;;;;;;13.51;100.00;101040.36;2007772;71;32910;-79
2022/04/04 23:19:54;;;;;;;71.63;67.43;;;;;;;13.50;100.00;101042.31;1994960;71;32879;-70
2022/04/04 23:25:38;;;;;;;68.03;63.87;;;;;;;13.50;100.00;101032.55;1992000;71;32760;-71
2022/04/04 23:31:22;;;;;;;69.47;65.37;;;;;;;13.47;100.00;101042.92;2015057;71;32836;-78
2022/04/04 23:37:07;;;;;;;70.50;66.30;;;;;;;13.44;100.00;101037.92;1999160;71;33377;-78
2022/04/04 23:42:52;;;;;;;69.13;65.07;;;;;;;13.45;100.00;101033.17;2013451;71;32831;-79
2022/04/04 23:48:36;;;;;;;70.80;66.70;;;;;;;13.42;100.00;101037.41;2015107;71;32964;-70
2022/04/04 23:54:21;;;;;;;69.27;65.03;;;;;;;13.41;100.00;101036.30;2005891;71;33365;-70
